sensor_id;sensor_type;location;lat;lon;timestamp;pressure;altitude;pressure_sealevel;temperature;humidity
74372;BME280;62885;51.374;6.170;2023-03-01T00:01:13;102783.41;;;-0.23;72.69
74372;BME280;62885;51.374;6.170;2023-03-01T00:03:38;102788.72;;;-0.25;72.66
74372;BME280;62885;51.374;6.170;2023-03-01T00:06:05;102783.41;;;-0.28;72.78
74372;BME280;62885;51.374;6.170;2023-03-01T00:08:30;102777.28;;;-0.27;72.88
74372;BME280;62885;51.374;6.170;2023-03-01T00:11:19;102779.03;;;-0.23;72.80
74372;BME280;62885;51.374;6.170;2023-03-01T00:13:47;102786.94;;;-0.27;73.01
74372;BME280;62885;51.374;6.170;2023-03-01T00:16:16;102781.66;;;-0.27;72.80
74372;BME280;62885;51.374;6.170;2023-03-01T00:18:41;102780.78;;;-0.35;72.93
74372;BME280;62885;51.374;6.170;2023-03-01T00:21:07;102778.16;;;-0.34;73.34
74372;BME280;62885;51.374;6.170;2023-03-01T00:23:36;102782.53;;;-0.39;73.45
74372;BME280;62885;51.374;6.170;2023-03-01T00:26:06;102788.66;;;-0.45;74.19
74372;BME280;62885;51.374;6.170;2023-03-01T00:28:31;102779.00;;;-0.49;74.07
74372;BME280;62885;51.374;6.170;2023-03-01T00:31:05;102771.09;;;-0.52;73.83
74372;BME280;62885;51.374;6.170;2023-03-01T00:33:31;102772.84;;;-0.49;73.88
74372;BME280;62885;51.374;6.170;2023-03-01T00:35:58;102771.09;;;-0.50;73.49
74372;BME280;62885;51.374;6.170;2023-03-01T00:38:23;102776.34;;;-0.52;74.24
74372;BME280;62885;51.374;6.170;2023-03-01T00:40:49;102762.31;;;-0.57;73.88
74372;BME280;62885;51.374;6.170;2023-03-01T00:43:14;102775.47;;;-0.57;74.74
74372;BME280;62885;51.374;6.170;2023-03-01T00:45:41;102764.97;;;-0.54;74.42
74372;BME280;62885;51.374;6.170;2023-03-01T00:48:07;102763.19;;;-0.58;74.50
74372;BME280;62885;51.374;6.170;2023-03-01T00:50:32;102756.16;;;-0.62;74.62
74372;BME280;62885;51.374;6.170;2023-03-01T00:52:58;102757.03;;;-0.61;74.44
74372;BME280;62885;51.374;6.170;2023-03-01T00:55:24;102748.28;;;-0.59;74.61
74372;BME280;62885;51.374;6.170;2023-03-01T00:57:49;102750.03;;;-0.61;74.26
74372;BME280;62885;51.374;6.170;2023-03-01T01:00:15;102741.25;;;-0.63;75.00
74372;BME280;62885;51.374;6.170;2023-03-01T01:02:41;102739.47;;;-0.70;74.64
74372;BME280;62885;51.374;6.170;2023-03-01T01:05:07;102745.63;;;-0.66;74.98
74372;BME280;62885;51.374;6.170;2023-03-01T01:07:32;102743.88;;;-0.67;74.74
74372;BME280;62885;51.374;6.170;2023-03-01T01:09:57;102735.06;;;-0.75;75.34
74372;BME280;62885;51.374;6.170;2023-03-01T01:12:23;102737.72;;;-0.74;74.44
74372;BME280;62885;51.374;6.170;2023-03-01T01:14:48;102744.75;;;-0.76;75.41
74372;BME280;62885;51.374;6.170;2023-03-01T01:17:14;102741.22;;;-0.76;75.23
74372;BME280;62885;51.374;6.170;2023-03-01T01:19:39;102726.34;;;-0.76;74.64
74372;BME280;62885;51.374;6.170;2023-03-01T01:22:04;102727.19;;;-0.77;75.27
74372;BME280;62885;51.374;6.170;2023-03-01T01:24:30;102724.53;;;-0.82;75.41
74372;BME280;62885;51.374;6.170;2023-03-01T01:26:55;102721.03;;;-0.84;75.82
74372;BME280;62885;51.374;6.170;2023-03-01T01:29:21;102711.41;;;-0.83;76.22
74372;BME280;62885;51.374;6.170;2023-03-01T01:31:46;102714.88;;;-0.86;75.29
74372;BME280;62885;51.374;6.170;2023-03-01T01:34:17;102721.03;;;-0.88;76.27
74372;BME280;62885;51.374;6.170;2023-03-01T01:36:43;102717.50;;;-0.92;76.33
74372;BME280;62885;51.374;6.170;2023-03-01T01:39:08;102714.84;;;-0.93;75.93
74372;BME280;62885;51.374;6.170;2023-03-01T01:41:41;102712.22;;;-0.93;76.36
74372;BME280;62885;51.374;6.170;2023-03-01T01:46:41;102704.31;;;-0.98;75.74
74372;BME280;62885;51.374;6.170;2023-03-01T01:51:58;102688.53;;;-1.04;76.82
74372;BME280;62885;51.374;6.170;2023-03-01T01:54:28;102692.03;;;-1.05;76.73
74372;BME280;62885;51.374;6.170;2023-03-01T01:56:59;102685.94;;;-0.99;76.61
74372;BME280;62885;51.374;6.170;2023-03-01T01:59:28;102688.56;;;-1.05;76.68
74372;BME280;62885;51.374;6.170;2023-03-01T02:01:54;102683.28;;;-1.04;76.88
74372;BME280;62885;51.374;6.170;2023-03-01T02:04:20;102680.63;;;-1.10;77.00
74372;BME280;62885;51.374;6.170;2023-03-01T02:06:56;102677.09;;;-1.19;77.01
74372;BME280;62885;51.374;6.170;2023-03-01T02:09:23;102677.97;;;-1.16;77.38
74372;BME280;62885;51.374;6.170;2023-03-01T02:11:50;102676.22;;;-1.20;77.07
74372;BME280;62885;51.374;6.170;2023-03-01T02:14:18;102678.84;;;-1.25;76.95
74372;BME280;62885;51.374;6.170;2023-03-01T02:16:44;102671.81;;;-1.27;77.38
74372;BME280;62885;51.374;6.170;2023-03-01T02:19:18;102681.44;;;-1.29;76.97
74372;BME280;62885;51.374;6.170;2023-03-01T02:21:57;102671.78;;;-1.35;78.23
74372;BME280;62885;51.374;6.170;2023-03-01T02:24:45;102672.66;;;-1.31;77.87
74372;BME280;62885;51.374;6.170;2023-03-01T02:27:14;102670.03;;;-1.36;77.37
74372;BME280;62885;51.374;6.170;2023-03-01T02:29:41;102673.50;;;-1.38;78.05
74372;BME280;62885;51.374;6.170;2023-03-01T02:32:11;102675.31;;;-1.34;78.34
74372;BME280;62885;51.374;6.170;2023-03-01T02:34:38;102673.50;;;-1.40;78.15
74372;BME280;62885;51.374;6.170;2023-03-01T02:37:09;102677.94;;;-1.34;77.59
74372;BME280;62885;51.374;6.170;2023-03-01T02:39:40;102677.91;;;-1.40;77.91
74372;BME280;62885;51.374;6.170;2023-03-01T02:42:11;102675.25;;;-1.42;78.64
74372;BME280;62885;51.374;6.170;2023-03-01T02:44:38;102670.00;;;-1.43;78.46
74372;BME280;62885;51.374;6.170;2023-03-01T02:47:04;102663.00;;;-1.46;77.80
74372;BME280;62885;51.374;6.170;2023-03-01T02:49:33;102664.69;;;-1.49;77.82
74372;BME280;62885;51.374;6.170;2023-03-01T02:57:28;102662.97;;;-1.52;77.88
74372;BME280;62885;51.374;6.170;2023-03-01T03:00:00;102660.31;;;-1.55;78.23
74372;BME280;62885;51.374;6.170;2023-03-01T03:02:32;102663.78;;;-1.59;79.10
74372;BME280;62885;51.374;6.170;2023-03-01T03:05:13;102662.94;;;-1.55;78.12
74372;BME280;62885;51.374;6.170;2023-03-01T03:07:40;102656.78;;;-1.60;78.46
74372;BME280;62885;51.374;6.170;2023-03-01T03:10:09;102663.78;;;-1.59;79.24
74372;BME280;62885;51.374;6.170;2023-03-01T03:12:36;102656.75;;;-1.66;79.32
74372;BME280;62885;51.374;6.170;2023-03-01T03:15:03;102663.72;;;-1.71;79.53
74372;BME280;62885;51.374;6.170;2023-03-01T03:17:36;102669.84;;;-1.68;78.66
74372;BME280;62885;51.374;6.170;2023-03-01T03:20:06;102676.81;;;-1.73;79.74
74372;BME280;62885;51.374;6.170;2023-03-01T03:22:39;102669.84;;;-1.72;78.75
74372;BME280;62885;51.374;6.170;2023-03-01T03:25:06;102662.84;;;-1.70;79.13
74372;BME280;62885;51.374;6.170;2023-03-01T03:27:38;102660.19;;;-1.73;79.19
74372;BME280;62885;51.374;6.170;2023-03-01T03:30:05;102669.88;;;-1.69;78.54
74372;BME280;62885;51.374;6.170;2023-03-01T03:32:38;102656.66;;;-1.80;79.53
74372;BME280;62885;51.374;6.170;2023-03-01T03:35:04;102662.78;;;-1.82;80.40
74372;BME280;62885;51.374;6.170;2023-03-01T03:37:40;102666.28;;;-1.83;79.92
74372;BME280;62885;51.374;6.170;2023-03-01T03:40:24;102666.28;;;-1.83;79.99
74372;BME280;62885;51.374;6.170;2023-03-01T03:42:50;102660.97;;;-1.86;80.90
74372;BME280;62885;51.374;6.170;2023-03-01T03:45:16;102665.38;;;-1.85;80.49
74372;BME280;62885;51.374;6.170;2023-03-01T03:47:42;102674.09;;;-1.89;80.73
74372;BME280;62885;51.374;6.170;2023-03-01T03:50:14;102667.06;;;-1.92;79.91
74372;BME280;62885;51.374;6.170;2023-03-01T03:52:39;102659.22;;;-1.90;80.67
74372;BME280;62885;51.374;6.170;2023-03-01T03:55:06;102653.09;;;-1.89;79.62
74372;BME280;62885;51.374;6.170;2023-03-01T03:57:39;102651.34;;;-1.90;80.00
74372;BME280;62885;51.374;6.170;2023-03-01T04:00:07;102656.53;;;-1.98;80.13
74372;BME280;62885;51.374;6.170;2023-03-01T04:02:41;102647.78;;;-2.01;80.16
74372;BME280;62885;51.374;6.170;2023-03-01T04:05:08;102652.97;;;-2.09;79.91
74372;BME280;62885;51.374;6.170;2023-03-01T04:07:35;102652.13;;;-2.07;80.35
74372;BME280;62885;51.374;6.170;2023-03-01T04:10:02;102644.22;;;-2.11;81.33
74372;BME280;62885;51.374;6.170;2023-03-01T04:12:28;102648.63;;;-2.07;80.76
74372;BME280;62885;51.374;6.170;2023-03-01T04:14:53;102644.22;;;-2.08;81.63
74372;BME280;62885;51.374;6.170;2023-03-01T04:17:19;102638.97;;;-2.08;80.11
74372;BME280;62885;51.374;6.170;2023-03-01T04:19:44;102627.56;;;-2.16;80.47
74372;BME280;62885;51.374;6.170;2023-03-01T04:22:14;102631.06;;;-2.14;81.54
74372;BME280;62885;51.374;6.170;2023-03-01T04:24:44;102630.19;;;-2.15;80.92
74372;BME280;62885;51.374;6.170;2023-03-01T04:27:10;102621.38;;;-2.21;81.49
74372;BME280;62885;51.374;6.170;2023-03-01T04:29:36;102614.41;;;-2.21;81.28
74372;BME280;62885;51.374;6.170;2023-03-01T04:32:01;102617.94;;;-2.17;80.50
74372;BME280;62885;51.374;6.170;2023-03-01T04:34:28;102617.03;;;-2.22;80.93
74372;BME280;62885;51.374;6.170;2023-03-01T04:36:53;102605.66;;;-2.21;81.36
74372;BME280;62885;51.374;6.170;2023-03-01T04:39:19;102613.53;;;-2.23;82.08
74372;BME280;62885;51.374;6.170;2023-03-01T04:41:44;102625.75;;;-2.25;81.88
74372;BME280;62885;51.374;6.170;2023-03-01T04:44:09;102608.25;;;-2.29;82.48
74372;BME280;62885;51.374;6.170;2023-03-01T04:46:35;102613.53;;;-2.23;81.17
74372;BME280;62885;51.374;6.170;2023-03-01T04:49:02;102622.25;;;-2.24;81.08
74372;BME280;62885;51.374;6.170;2023-03-01T04:51:28;102623.16;;;-2.22;81.10
74372;BME280;62885;51.374;6.170;2023-03-01T04:53:54;102624.88;;;-2.21;80.70
74372;BME280;62885;51.374;6.170;2023-03-01T04:56:19;102623.97;;;-2.26;80.72
74372;BME280;62885;51.374;6.170;2023-03-01T04:58:45;102617.84;;;-2.26;82.07
74372;BME280;62885;51.374;6.170;2023-03-01T05:01:12;102608.19;;;-2.32;82.24
74372;BME280;62885;51.374;6.170;2023-03-01T05:03:42;102610.00;;;-2.25;82.16
74372;BME280;62885;51.374;6.170;2023-03-01T05:06:08;102609.13;;;-2.28;80.88
74372;BME280;62885;51.374;6.170;2023-03-01T05:08:33;102604.72;;;-2.34;81.41
74372;BME280;62885;51.374;6.170;2023-03-01T05:11:02;102608.19;;;-2.32;81.63
74372;BME280;62885;51.374;6.170;2023-03-01T05:13:27;102602.09;;;-2.34;81.30
74372;BME280;62885;51.374;6.170;2023-03-01T05:15:56;102600.31;;;-2.35;80.87
74372;BME280;62885;51.374;6.170;2023-03-01T05:18:23;102599.41;;;-2.41;82.23
74372;BME280;62885;51.374;6.170;2023-03-01T05:20:54;102598.59;;;-2.34;81.70
74372;BME280;62885;51.374;6.170;2023-03-01T05:23:22;102593.28;;;-2.40;82.36
74372;BME280;62885;51.374;6.170;2023-03-01T05:25:48;102594.13;;;-2.44;82.68
74372;BME280;62885;51.374;6.170;2023-03-01T05:28:14;102597.69;;;-2.35;81.70
74372;BME280;62885;51.374;6.170;2023-03-01T05:30:40;102591.56;;;-2.40;81.76
74372;BME280;62885;51.374;6.170;2023-03-01T05:33:06;102591.53;;;-2.41;81.27
74372;BME280;62885;51.374;6.170;2023-03-01T05:35:41;102596.81;;;-2.32;81.07
74372;BME280;62885;51.374;6.170;2023-03-01T05:38:08;102598.56;;;-2.36;81.99
74372;BME280;62885;51.374;6.170;2023-03-01T05:40:34;102595.00;;;-2.47;82.66
74372;BME280;62885;51.374;6.170;2023-03-01T05:42:59;102587.16;;;-2.42;82.52
74372;BME280;62885;51.374;6.170;2023-03-01T05:45:26;102592.38;;;-2.44;81.78
74372;BME280;62885;51.374;6.170;2023-03-01T05:47:53;102586.25;;;-2.46;81.18
74372;BME280;62885;51.374;6.170;2023-03-01T05:50:25;102577.50;;;-2.48;81.54
74372;BME280;62885;51.374;6.170;2023-03-01T05:52:57;102580.09;;;-2.51;81.21
74372;BME280;62885;51.374;6.170;2023-03-01T05:55:23;102582.72;;;-2.50;82.55
74372;BME280;62885;51.374;6.170;2023-03-01T05:57:51;102581.91;;;-2.45;82.47
74372;BME280;62885;51.374;6.170;2023-03-01T06:00:19;102576.59;;;-2.52;82.50
74372;BME280;62885;51.374;6.170;2023-03-01T06:02:44;102575.72;;;-2.52;81.36
74372;BME280;62885;51.374;6.170;2023-03-01T06:05:11;102574.84;;;-2.53;82.09
74372;BME280;62885;51.374;6.170;2023-03-01T06:07:37;102574.81;;;-2.54;81.88
74372;BME280;62885;51.374;6.170;2023-03-01T06:10:04;102573.03;;;-2.60;81.75
74372;BME280;62885;51.374;6.170;2023-03-01T06:12:34;102575.63;;;-2.61;82.74
74372;BME280;62885;51.374;6.170;2023-03-01T06:15:00;102567.81;;;-2.55;81.83
74372;BME280;62885;51.374;6.170;2023-03-01T06:17:26;102574.88;;;-2.48;82.67
74372;BME280;62885;51.374;6.170;2023-03-01T06:19:51;102578.38;;;-2.44;81.21
74372;BME280;62885;51.374;6.170;2023-03-01T06:22:16;102584.50;;;-2.47;81.69
74372;BME280;62885;51.374;6.170;2023-03-01T06:24:44;102587.97;;;-2.51;82.55
74372;BME280;62885;51.374;6.170;2023-03-01T06:27:09;102587.03;;;-2.56;82.16
74372;BME280;62885;51.374;6.170;2023-03-01T06:29:34;102587.88;;;-2.60;82.13
74372;BME280;62885;51.374;6.170;2023-03-01T06:32:00;102592.28;;;-2.56;82.28
74372;BME280;62885;51.374;6.170;2023-03-01T06:34:25;102588.84;;;-2.51;82.49
74372;BME280;62885;51.374;6.170;2023-03-01T06:36:50;102588.13;;;-2.27;81.92
74372;BME280;62885;51.374;6.170;2023-03-01T06:39:16;102587.78;;;-1.18;78.27
74372;BME280;62885;51.374;6.170;2023-03-01T06:41:43;102579.88;;;-0.01;73.49
74372;BME280;62885;51.374;6.170;2023-03-01T06:44:08;102577.91;;;0.57;69.53
74372;BME280;62885;51.374;6.170;2023-03-01T06:46:33;102583.44;;;-0.25;71.11
74372;BME280;62885;51.374;6.170;2023-03-01T06:49:01;102584.25;;;-1.21;74.41
74372;BME280;62885;51.374;6.170;2023-03-01T06:51:29;102583.25;;;-1.64;77.08
74372;BME280;62885;51.374;6.170;2023-03-01T06:53:55;102580.50;;;-1.84;78.00
74372;BME280;62885;51.374;6.170;2023-03-01T06:56:20;102570.84;;;-1.99;77.96
74372;BME280;62885;51.374;6.170;2023-03-01T06:58:45;102573.38;;;-2.10;80.22
74372;BME280;62885;51.374;6.170;2023-03-01T07:01:11;102573.38;;;-2.10;79.15
74372;BME280;62885;51.374;6.170;2023-03-01T07:03:36;102576.84;;;-2.14;80.45
74372;BME280;62885;51.374;6.170;2023-03-01T07:06:01;102574.19;;;-2.23;80.73
74372;BME280;62885;51.374;6.170;2023-03-01T07:08:27;102575.09;;;-2.13;80.11
74372;BME280;62885;51.374;6.170;2023-03-01T07:10:58;102576.91;;;-2.04;81.25
74372;BME280;62885;51.374;6.170;2023-03-01T07:13:24;102585.59;;;-2.13;80.71
74372;BME280;62885;51.374;6.170;2023-03-01T07:15:50;102586.47;;;-2.14;79.70
74372;BME280;62885;51.374;6.170;2023-03-01T07:18:15;102577.78;;;-2.02;79.86
74372;BME280;62885;51.374;6.170;2023-03-01T07:20:40;102583.06;;;-2.01;80.88
74372;BME280;62885;51.374;6.170;2023-03-01T07:23:06;102583.09;;;-1.90;79.42
74372;BME280;62885;51.374;6.170;2023-03-01T07:25:31;102585.72;;;-1.90;79.56
74372;BME280;62885;51.374;6.170;2023-03-01T07:27:57;102587.50;;;-1.85;80.12
74372;BME280;62885;51.374;6.170;2023-03-01T07:30:23;102586.69;;;-1.81;78.64
74372;BME280;62885;51.374;6.170;2023-03-01T07:32:51;102580.56;;;-1.75;79.12
74372;BME280;62885;51.374;6.170;2023-03-01T07:35:16;102580.59;;;-1.69;79.21
74372;BME280;62885;51.374;6.170;2023-03-01T07:37:42;102589.38;;;-1.59;79.15
74372;BME280;62885;51.374;6.170;2023-03-01T07:40:07;102581.53;;;-1.55;78.91
74372;BME280;62885;51.374;6.170;2023-03-01T07:42:33;102588.56;;;-1.46;77.95
74372;BME280;62885;51.374;6.170;2023-03-01T07:44:58;102592.06;;;-1.38;78.14
74372;BME280;62885;51.374;6.170;2023-03-01T07:47:24;102580.75;;;-1.30;77.80
74372;BME280;62885;51.374;6.170;2023-03-01T07:49:49;102584.25;;;-1.25;77.16
74372;BME280;62885;51.374;6.170;2023-03-01T07:52:14;102593.91;;;-1.19;77.04
74372;BME280;62885;51.374;6.170;2023-03-01T07:54:42;102586.03;;;-1.10;77.56
74372;BME280;62885;51.374;6.170;2023-03-01T07:57:09;102577.28;;;-1.03;76.17
74372;BME280;62885;51.374;6.170;2023-03-01T07:59:34;102577.31;;;-0.95;76.91
74372;BME280;62885;51.374;6.170;2023-03-01T08:02:00;102576.44;;;-0.85;76.96
74372;BME280;62885;51.374;6.170;2023-03-01T08:04:25;102579.94;;;-0.78;76.64
74372;BME280;62885;51.374;6.170;2023-03-01T08:06:52;102575.56;;;-0.67;75.95
74372;BME280;62885;51.374;6.170;2023-03-01T08:09:18;102572.03;;;-0.63;75.89
74372;BME280;62885;51.374;6.170;2023-03-01T08:11:43;102585.22;;;-0.53;75.31
74372;BME280;62885;51.374;6.170;2023-03-01T08:14:09;102585.19;;;-0.47;75.72
74372;BME280;62885;51.374;6.170;2023-03-01T08:16:35;102572.91;;;-0.38;75.04
74372;BME280;62885;51.374;6.170;2023-03-01T08:19:06;102582.56;;;-0.30;74.42
74372;BME280;62885;51.374;6.170;2023-03-01T08:21:31;102578.16;;;-0.23;73.73
74372;BME280;62885;51.374;6.170;2023-03-01T08:23:57;102573.75;;;-0.15;73.23
74372;BME280;62885;51.374;6.170;2023-03-01T08:26:22;102576.41;;;-0.14;73.69
74372;BME280;62885;51.374;6.170;2023-03-01T08:28:48;102579.91;;;-0.07;73.02
74372;BME280;62885;51.374;6.170;2023-03-01T08:31:21;102579.84;;;0.00;73.09
74372;BME280;62885;51.374;6.170;2023-03-01T08:33:49;102568.41;;;0.15;73.11
74372;BME280;62885;51.374;6.170;2023-03-01T08:36:20;102569.28;;;0.19;72.31
74372;BME280;62885;51.374;6.170;2023-03-01T08:38:46;102563.09;;;0.24;72.30
74372;BME280;62885;51.374;6.170;2023-03-01T08:41:11;102556.03;;;0.38;71.08
74372;BME280;62885;51.374;6.170;2023-03-01T08:43:37;102558.63;;;0.49;71.47
74372;BME280;62885;51.374;6.170;2023-03-01T08:46:02;102555.94;;;0.57;71.14
74372;BME280;62885;51.374;6.170;2023-03-01T08:48:28;102557.72;;;0.58;70.07
74372;BME280;62885;51.374;6.170;2023-03-01T08:50:54;102560.25;;;0.73;70.59
74372;BME280;62885;51.374;6.170;2023-03-01T08:53:19;102559.28;;;0.85;70.41
74372;BME280;62885;51.374;6.170;2023-03-01T08:55:44;102570.72;;;0.87;69.90
74372;BME280;62885;51.374;6.170;2023-03-01T08:58:10;102564.50;;;0.94;68.71
74372;BME280;62885;51.374;6.170;2023-03-01T09:00:35;102558.25;;;1.08;69.60
74372;BME280;62885;51.374;6.170;2023-03-01T09:03:01;102561.72;;;1.15;69.07
74372;BME280;62885;51.374;6.170;2023-03-01T09:05:27;102555.53;;;1.22;68.59
74372;BME280;62885;51.374;6.170;2023-03-01T09:07:52;102559.81;;;1.34;68.46
74372;BME280;62885;51.374;6.170;2023-03-01T09:10:17;102547.53;;;1.33;67.30
74372;BME280;62885;51.374;6.170;2023-03-01T09:12:43;102552.75;;;1.34;67.09
74372;BME280;62885;51.374;6.170;2023-03-01T09:15:09;102558.94;;;1.33;66.82
74372;BME280;62885;51.374;6.170;2023-03-01T09:17:34;102544.00;;;1.34;66.64
74372;BME280;62885;51.374;6.170;2023-03-01T09:20:00;102554.41;;;1.49;67.49
74372;BME280;62885;51.374;6.170;2023-03-01T09:22:25;102534.06;;;1.63;67.15
74372;BME280;62885;51.374;6.170;2023-03-01T09:24:50;102534.75;;;1.80;66.90
74372;BME280;62885;51.374;6.170;2023-03-01T09:27:16;102532.06;;;1.83;66.06
74372;BME280;62885;51.374;6.170;2023-03-01T09:29:44;102532.19;;;1.74;65.22
74372;BME280;62885;51.374;6.170;2023-03-01T09:32:09;102520.69;;;1.78;66.12
74372;BME280;62885;51.374;6.170;2023-03-01T09:34:35;102519.72;;;1.85;65.04
74372;BME280;62885;51.374;6.170;2023-03-01T09:37:21;102530.28;;;1.85;64.39
74372;BME280;62885;51.374;6.170;2023-03-01T09:39:46;102522.19;;;2.00;64.81
74372;BME280;62885;51.374;6.170;2023-03-01T09:42:12;102522.09;;;2.10;64.73
74372;BME280;62885;51.374;6.170;2023-03-01T09:47:18;102539.63;;;2.15;64.11
74372;BME280;62885;51.374;6.170;2023-03-01T09:49:50;102514.84;;;2.24;63.92
74372;BME280;62885;51.374;6.170;2023-03-01T09:52:42;102518.22;;;2.36;63.32
74372;BME280;62885;51.374;6.170;2023-03-01T09:55:14;102518.31;;;2.30;62.82
74372;BME280;62885;51.374;6.170;2023-03-01T10:00:14;102515.19;;;2.62;62.38
74372;BME280;62885;51.374;6.170;2023-03-01T10:05:47;102523.91;;;2.70;60.97
74372;BME280;62885;51.374;6.170;2023-03-01T10:09:26;102514.31;;;2.63;60.70
74372;BME280;62885;51.374;6.170;2023-03-01T10:11:28;102506.00;;;2.89;60.68
74372;BME280;62885;51.374;6.170;2023-03-01T10:14:03;102504.53;;;2.70;59.86
74372;BME280;62885;51.374;6.170;2023-03-01T10:16:51;102499.81;;;2.90;60.40
74372;BME280;62885;51.374;6.170;2023-03-01T10:19:27;102493.22;;;3.15;59.83
74372;BME280;62885;51.374;6.170;2023-03-01T10:21:57;102482.00;;;3.01;59.22
74372;BME280;62885;51.374;6.170;2023-03-01T10:24:31;102482.78;;;3.08;59.69
74372;BME280;62885;51.374;6.170;2023-03-01T10:27:02;102473.66;;;3.25;58.80
74372;BME280;62885;51.374;6.170;2023-03-01T10:29:36;102474.25;;;3.41;58.21
74372;BME280;62885;51.374;6.170;2023-03-01T10:32:03;102472.56;;;3.37;57.90
74372;BME280;62885;51.374;6.170;2023-03-01T10:34:33;102467.38;;;3.31;57.41
74372;BME280;62885;51.374;6.170;2023-03-01T10:37:18;102465.63;;;3.32;57.35
74372;BME280;62885;51.374;6.170;2023-03-01T10:40:08;102461.25;;;3.27;57.31
74372;BME280;62885;51.374;6.170;2023-03-01T10:42:46;102446.13;;;3.34;57.76
74372;BME280;62885;51.374;6.170;2023-03-01T10:45:36;102462.66;;;3.48;57.18
74372;BME280;62885;51.374;6.170;2023-03-01T10:48:24;102454.63;;;3.51;57.10
74372;BME280;62885;51.374;6.170;2023-03-01T10:51:04;102452.84;;;3.53;56.77
74372;BME280;62885;51.374;6.170;2023-03-01T10:53:56;102449.84;;;3.71;56.51
74372;BME280;62885;51.374;6.170;2023-03-01T10:56:22;102449.31;;;3.53;56.39
74372;BME280;62885;51.374;6.170;2023-03-01T10:58:59;102450.19;;;3.55;56.49
74372;BME280;62885;51.374;6.170;2023-03-01T11:01:30;102439.50;;;3.59;56.82
74372;BME280;62885;51.374;6.170;2023-03-01T11:04:11;102438.41;;;3.68;56.07
74372;BME280;62885;51.374;6.170;2023-03-01T11:06:39;102431.31;;;3.70;55.87
74372;BME280;62885;51.374;6.170;2023-03-01T11:09:21;102427.28;;;3.95;55.70
74372;BME280;62885;51.374;6.170;2023-03-01T11:11:52;102436.66;;;4.10;55.53
74372;BME280;62885;51.374;6.170;2023-03-01T11:14:22;102433.09;;;4.12;54.02
74372;BME280;62885;51.374;6.170;2023-03-01T11:16:57;102426.81;;;4.17;53.18
74372;BME280;62885;51.374;6.170;2023-03-01T11:19:23;102423.16;;;4.22;52.35
74372;BME280;62885;51.374;6.170;2023-03-01T11:24:45;102431.09;;;4.22;52.04
74372;BME280;62885;51.374;6.170;2023-03-01T11:27:46;102427.31;;;4.34;51.52
74372;BME280;62885;51.374;6.170;2023-03-01T11:30:28;102438.16;;;4.23;51.07
74372;BME280;62885;51.374;6.170;2023-03-01T11:35:26;102422.44;;;4.54;51.03
74372;BME280;62885;51.374;6.170;2023-03-01T11:40:41;102418.59;;;4.66;49.52
74372;BME280;62885;51.374;6.170;2023-03-01T11:44:23;102426.84;;;4.53;49.80
74372;BME280;62885;51.374;6.170;2023-03-01T11:54:18;102405.28;;;4.67;49.52
74372;BME280;62885;51.374;6.170;2023-03-01T11:56:55;102405.66;;;4.52;49.67
74372;BME280;62885;51.374;6.170;2023-03-01T11:59:29;102411.09;;;4.83;49.52
74372;BME280;62885;51.374;6.170;2023-03-01T12:07:46;102395.66;;;4.99;49.10
74372;BME280;62885;51.374;6.170;2023-03-01T12:10:28;102404.97;;;5.15;50.27
74372;BME280;62885;51.374;6.170;2023-03-01T12:16:10;102401.81;;;5.01;49.19
74372;BME280;62885;51.374;6.170;2023-03-01T12:19:04;102403.53;;;5.02;49.67
74372;BME280;62885;51.374;6.170;2023-03-01T12:21:42;102394.31;;;5.16;49.52
74372;BME280;62885;51.374;6.170;2023-03-01T12:24:32;102387.94;;;5.23;49.32
74372;BME280;62885;51.374;6.170;2023-03-01T12:30:25;102393.16;;;5.25;47.59
74372;BME280;62885;51.374;6.170;2023-03-01T12:33:39;102373.50;;;5.32;48.16
74372;BME280;62885;51.374;6.170;2023-03-01T12:38:50;102368.50;;;5.21;46.75
74372;BME280;62885;51.374;6.170;2023-03-01T12:49:29;102349.94;;;5.52;47.50
74372;BME280;62885;51.374;6.170;2023-03-01T12:52:00;102346.81;;;5.67;46.86
74372;BME280;62885;51.374;6.170;2023-03-01T12:54:30;102336.69;;;5.51;46.73
74372;BME280;62885;51.374;6.170;2023-03-01T12:57:17;102340.28;;;5.48;46.06
74372;BME280;62885;51.374;6.170;2023-03-01T13:02:41;102336.28;;;5.64;46.29
74372;BME280;62885;51.374;6.170;2023-03-01T13:11:02;102320.38;;;5.63;46.04
74372;BME280;62885;51.374;6.170;2023-03-01T13:13:29;102331.78;;;5.66;45.84
74372;BME280;62885;51.374;6.170;2023-03-01T13:15:55;102328.44;;;5.60;45.47
74372;BME280;62885;51.374;6.170;2023-03-01T13:20:50;102322.34;;;5.87;45.10
74372;BME280;62885;51.374;6.170;2023-03-01T13:30:58;102313.63;;;5.82;47.17
74372;BME280;62885;51.374;6.170;2023-03-01T13:35:52;102301.44;;;6.04;47.20
74372;BME280;62885;51.374;6.170;2023-03-01T13:41:03;102272.09;;;6.06;46.68
74372;BME280;62885;51.374;6.170;2023-03-01T13:43:37;102283.50;;;6.11;45.71
74372;BME280;62885;51.374;6.170;2023-03-01T13:46:18;102282.63;;;6.10;45.04
74372;BME280;62885;51.374;6.170;2023-03-01T13:48:51;102260.91;;;5.96;44.55
74372;BME280;62885;51.374;6.170;2023-03-01T13:51:21;102259.00;;;6.28;45.18
74372;BME280;62885;51.374;6.170;2023-03-01T13:53:48;102264.66;;;6.43;44.91
74372;BME280;62885;51.374;6.170;2023-03-01T13:56:21;102250.41;;;6.46;44.37
74372;BME280;62885;51.374;6.170;2023-03-01T13:59:05;102251.03;;;6.28;44.38
74372;BME280;62885;51.374;6.170;2023-03-01T14:01:35;102252.75;;;6.29;45.82
74372;BME280;62885;51.374;6.170;2023-03-01T14:04:01;102240.78;;;6.42;46.03
74372;BME280;62885;51.374;6.170;2023-03-01T14:06:29;102250.88;;;6.32;44.53
74372;BME280;62885;51.374;6.170;2023-03-01T14:09:25;102232.53;;;6.49;45.57
74372;BME280;62885;51.374;6.170;2023-03-01T14:14:32;102236.31;;;6.42;43.53
74372;BME280;62885;51.374;6.170;2023-03-01T14:20:20;102224.31;;;6.31;43.86
74372;BME280;62885;51.374;6.170;2023-03-01T14:22:46;102226.50;;;6.44;43.87
74372;BME280;62885;51.374;6.170;2023-03-01T14:25:30;102227.22;;;6.49;44.20
74372;BME280;62885;51.374;6.170;2023-03-01T14:30:30;102219.19;;;6.51;44.74
74372;BME280;62885;51.374;6.170;2023-03-01T14:33:01;102227.09;;;6.52;44.60
74372;BME280;62885;51.374;6.170;2023-03-01T14:35:32;102218.31;;;6.50;44.54